This is the latest recevied weather packets stored in our database for station/object K7PMV-13. If no packets are shown the sender has not sent any weather packets the latest 10 day(s).
| Time | Temp. | Humidity | Pressure | Rain* | Wind** | Luminosity | Snow |
|---|---|---|---|---|---|---|---|
| 1778014101 | 26.11° C | 30% | 1007.2 hPa | 0 mm | - | 984 W/m² | - |
| 1778013786 | 26.11° C | 30% | 1007.1 hPa | 0 mm | - | 103 W/m² | - |
| 1778013472 | 26.11° C | 30% | 1007.1 hPa | 0 mm | - | 283 W/m² | - |
| 1778013149 | 26.11° C | 31% | 1007.2 hPa | 0 mm | - | 102 W/m² | - |
| 1778012835 | 25.56° C | 31% | 1007.2 hPa | 0 mm | - | 104 W/m² | - |
| 1778012515 | 25.56° C | 31% | 1007.3 hPa | 0 mm | - | 967 W/m² | - |
| 1778012201 | 25.56° C | 33% | 1007.3 hPa | 0 mm | - | 101 W/m² | - |
| 1778011886 | 25° C | 33% | 1007.3 hPa | 0 mm | - | 316 W/m² | - |
| 1778011567 | 25° C | 33% | 1007.4 hPa | 0 mm | - | 332 W/m² | - |
| 1778011239 | 25.56° C | 33% | 1007.4 hPa | 0 mm | - | 353 W/m² | - |
| 1778010919 | 25.56° C | 33% | 1007.4 hPa | 0 mm | - | 330 W/m² | - |
| 1778010602 | 26.11° C | 33% | 1007.5 hPa | 0 mm | - | 113 W/m² | - |
| 1778010287 | 25° C | 36% | 1007.6 hPa | 0 mm | - | 118 W/m² | - |
| 1778009973 | 24.44° C | 37% | 1007.6 hPa | 0 mm | - | 112 W/m² | - |
| 1778009656 | 24.44° C | 37% | 1007.7 hPa | 0 mm | - | 115 W/m² | - |
| 1778009336 | 23.89° C | 38% | 1007.6 hPa | 0 mm | - | 213 W/m² | - |
| 1778009017 | 23.89° C | 39% | 1007.7 hPa | 0 mm | - | 295 W/m² | - |
| 1778008699 | 24.44° C | 39% | 1007.8 hPa | 0 mm | - | 299 W/m² | - |
| 1778008017 | 25° C | 38% | 1008 hPa | 0 mm | - | 643 W/m² | - |
| 1778007703 | 24.44° C | 39% | 1007.9 hPa | 0 mm | - | 104 W/m² | - |
| 1778007388 | 23.89° C | 39% | 1008 hPa | 0 mm | - | 290 W/m² | - |
| 1778007073 | 23.89° C | 41% | 1008 hPa | 0 mm | - | 287 W/m² | - |
| 1778006750 | 23.89° C | 41% | 1008.1 hPa | 0 mm | - | 315 W/m² | - |
| 1778006430 | 24.44° C | 39% | 1008.2 hPa | 0 mm | - | 108 W/m² | - |
| 1778006116 | 23.89° C | 40% | 1008.1 hPa | 0 mm | - | 916 W/m² | - |
* Rain latest hour (hover to see other rain measurements)
** Current wind speed in m/s (hover to see current wind gust speed)